sensor_id;sensor_type;location;lat;lon;timestamp;P1;durP1;ratioP1;P2;durP2;ratioP2
6015;SDS011;3036;49.960;8.454;2023-07-30T00:00:01;1.35;;;1.35;;
6015;SDS011;3036;49.960;8.454;2023-07-30T00:02:28;1.98;;;1.25;;
6015;SDS011;3036;49.960;8.454;2023-07-30T00:04:56;1.67;;;1.40;;
6015;SDS011;3036;49.960;8.454;2023-07-30T00:07:23;4.22;;;1.48;;
6015;SDS011;3036;49.960;8.454;2023-07-30T00:09:51;1.10;;;1.10;;
6015;SDS011;3036;49.960;8.454;2023-07-30T00:12:18;1.00;;;1.00;;
6015;SDS011;3036;49.960;8.454;2023-07-30T00:14:45;1.33;;;1.30;;
6015;SDS011;3036;49.960;8.454;2023-07-30T00:17:12;1.10;;;1.10;;
6015;SDS011;3036;49.960;8.454;2023-07-30T00:19:39;1.60;;;1.30;;
6015;SDS011;3036;49.960;8.454;2023-07-30T00:22:07;1.08;;;1.08;;
6015;SDS011;3036;49.960;8.454;2023-07-30T00:24:34;1.63;;;1.10;;
6015;SDS011;3036;49.960;8.454;2023-07-30T00:27:01;1.10;;;1.10;;
6015;SDS011;3036;49.960;8.454;2023-07-30T00:29:28;2.28;;;1.00;;
6015;SDS011;3036;49.960;8.454;2023-07-30T00:31:55;1.08;;;1.00;;
6015;SDS011;3036;49.960;8.454;2023-07-30T00:34:22;2.80;;;1.25;;
6015;SDS011;3036;49.960;8.454;2023-07-30T00:36:49;1.10;;;1.10;;
6015;SDS011;3036;49.960;8.454;2023-07-30T00:39:18;1.15;;;1.15;;
6015;SDS011;3036;49.960;8.454;2023-07-30T00:41:45;1.13;;;1.13;;
6015;SDS011;3036;49.960;8.454;2023-07-30T00:44:12;2.53;;;1.08;;
6015;SDS011;3036;49.960;8.454;2023-07-30T00:46:39;1.10;;;1.10;;
6015;SDS011;3036;49.960;8.454;2023-07-30T00:49:06;0.82;;;0.82;;
6015;SDS011;3036;49.960;8.454;2023-07-30T00:51:33;0.75;;;0.75;;
6015;SDS011;3036;49.960;8.454;2023-07-30T00:54:00;1.02;;;1.02;;
6015;SDS011;3036;49.960;8.454;2023-07-30T00:56:29;0.98;;;0.98;;
6015;SDS011;3036;49.960;8.454;2023-07-30T00:58:56;0.75;;;0.75;;
6015;SDS011;3036;49.960;8.454;2023-07-30T01:01:23;0.95;;;0.95;;
6015;SDS011;3036;49.960;8.454;2023-07-30T01:03:50;0.90;;;0.90;;
6015;SDS011;3036;49.960;8.454;2023-07-30T01:06:18;0.93;;;0.93;;
6015;SDS011;3036;49.960;8.454;2023-07-30T01:08:45;0.70;;;0.70;;
6015;SDS011;3036;49.960;8.454;2023-07-30T01:11:12;0.93;;;0.93;;
6015;SDS011;3036;49.960;8.454;2023-07-30T01:13:42;0.60;;;0.60;;
6015;SDS011;3036;49.960;8.454;2023-07-30T01:16:09;1.55;;;0.77;;
6015;SDS011;3036;49.960;8.454;2023-07-30T01:18:37;0.90;;;0.90;;
6015;SDS011;3036;49.960;8.454;2023-07-30T01:21:05;0.80;;;0.80;;
6015;SDS011;3036;49.960;8.454;2023-07-30T01:23:32;1.20;;;0.60;;
6015;SDS011;3036;49.960;8.454;2023-07-30T01:26:01;1.38;;;0.68;;
6015;SDS011;3036;49.960;8.454;2023-07-30T01:28:29;0.70;;;0.70;;
6015;SDS011;3036;49.960;8.454;2023-07-30T01:30:59;0.60;;;0.60;;
6015;SDS011;3036;49.960;8.454;2023-07-30T01:33:28;0.70;;;0.70;;
6015;SDS011;3036;49.960;8.454;2023-07-30T01:35:55;0.63;;;0.60;;
6015;SDS011;3036;49.960;8.454;2023-07-30T01:38:25;0.80;;;0.80;;
6015;SDS011;3036;49.960;8.454;2023-07-30T01:40:52;0.70;;;0.70;;
6015;SDS011;3036;49.960;8.454;2023-07-30T01:43:19;0.68;;;0.68;;
6015;SDS011;3036;49.960;8.454;2023-07-30T01:45:47;0.57;;;0.57;;
6015;SDS011;3036;49.960;8.454;2023-07-30T01:48:14;0.60;;;0.60;;
6015;SDS011;3036;49.960;8.454;2023-07-30T01:50:41;1.90;;;0.70;;
6015;SDS011;3036;49.960;8.454;2023-07-30T01:53:08;0.60;;;0.60;;
6015;SDS011;3036;49.960;8.454;2023-07-30T01:55:36;0.88;;;0.88;;
6015;SDS011;3036;49.960;8.454;2023-07-30T01:58:04;0.65;;;0.65;;
6015;SDS011;3036;49.960;8.454;2023-07-30T02:00:31;0.60;;;0.60;;
6015;SDS011;3036;49.960;8.454;2023-07-30T02:02:58;0.57;;;0.57;;
6015;SDS011;3036;49.960;8.454;2023-07-30T02:05:25;0.50;;;0.50;;
6015;SDS011;3036;49.960;8.454;2023-07-30T02:07:52;0.63;;;0.63;;
6015;SDS011;3036;49.960;8.454;2023-07-30T02:10:19;0.70;;;0.70;;
6015;SDS011;3036;49.960;8.454;2023-07-30T02:12:48;0.85;;;0.85;;
6015;SDS011;3036;49.960;8.454;2023-07-30T02:15:15;0.60;;;0.60;;
6015;SDS011;3036;49.960;8.454;2023-07-30T02:17:42;1.35;;;0.68;;
6015;SDS011;3036;49.960;8.454;2023-07-30T02:20:09;2.20;;;0.60;;
6015;SDS011;3036;49.960;8.454;2023-07-30T02:22:36;0.68;;;0.68;;
6015;SDS011;3036;49.960;8.454;2023-07-30T02:25:03;1.88;;;0.57;;
6015;SDS011;3036;49.960;8.454;2023-07-30T02:27:30;0.52;;;0.52;;
6015;SDS011;3036;49.960;8.454;2023-07-30T02:29:58;0.90;;;0.50;;
6015;SDS011;3036;49.960;8.454;2023-07-30T02:32:25;0.60;;;0.60;;
6015;SDS011;3036;49.960;8.454;2023-07-30T02:34:53;0.63;;;0.55;;
6015;SDS011;3036;49.960;8.454;2023-07-30T02:37:21;0.45;;;0.45;;
6015;SDS011;3036;49.960;8.454;2023-07-30T02:39:48;0.60;;;0.60;;
6015;SDS011;3036;49.960;8.454;2023-07-30T02:42:15;0.50;;;0.50;;
6015;SDS011;3036;49.960;8.454;2023-07-30T02:44:42;1.20;;;0.60;;
6015;SDS011;3036;49.960;8.454;2023-07-30T02:47:10;1.35;;;0.50;;
6015;SDS011;3036;49.960;8.454;2023-07-30T02:49:37;0.60;;;0.60;;
6015;SDS011;3036;49.960;8.454;2023-07-30T02:52:04;2.20;;;0.60;;
6015;SDS011;3036;49.960;8.454;2023-07-30T02:54:31;1.55;;;0.50;;
6015;SDS011;3036;49.960;8.454;2023-07-30T02:56:58;0.60;;;0.60;;
6015;SDS011;3036;49.960;8.454;2023-07-30T02:59:25;3.38;;;0.70;;
6015;SDS011;3036;49.960;8.454;2023-07-30T03:01:52;3.50;;;0.70;;
6015;SDS011;3036;49.960;8.454;2023-07-30T03:04:21;0.73;;;0.73;;
6015;SDS011;3036;49.960;8.454;2023-07-30T03:06:48;1.55;;;0.50;;
6015;SDS011;3036;49.960;8.454;2023-07-30T03:09:15;0.82;;;0.47;;
6015;SDS011;3036;49.960;8.454;2023-07-30T03:11:42;0.80;;;0.80;;
6015;SDS011;3036;49.960;8.454;2023-07-30T03:14:09;0.70;;;0.70;;
6015;SDS011;3036;49.960;8.454;2023-07-30T03:16:36;0.80;;;0.80;;
6015;SDS011;3036;49.960;8.454;2023-07-30T03:19:03;0.60;;;0.60;;
6015;SDS011;3036;49.960;8.454;2023-07-30T03:21:32;0.50;;;0.50;;
6015;SDS011;3036;49.960;8.454;2023-07-30T03:23:59;2.90;;;0.90;;
6015;SDS011;3036;49.960;8.454;2023-07-30T03:26:27;2.30;;;0.50;;
6015;SDS011;3036;49.960;8.454;2023-07-30T03:28:54;0.52;;;0.52;;
6015;SDS011;3036;49.960;8.454;2023-07-30T03:31:21;0.57;;;0.57;;
6015;SDS011;3036;49.960;8.454;2023-07-30T03:33:48;1.15;;;0.60;;
6015;SDS011;3036;49.960;8.454;2023-07-30T03:36:15;0.60;;;0.60;;
6015;SDS011;3036;49.960;8.454;2023-07-30T03:38:43;2.60;;;0.65;;
6015;SDS011;3036;49.960;8.454;2023-07-30T03:41:10;1.52;;;0.60;;
6015;SDS011;3036;49.960;8.454;2023-07-30T03:43:37;1.20;;;0.57;;
6015;SDS011;3036;49.960;8.454;2023-07-30T03:46:04;0.90;;;0.90;;
6015;SDS011;3036;49.960;8.454;2023-07-30T03:48:31;1.75;;;0.60;;
6015;SDS011;3036;49.960;8.454;2023-07-30T03:50:58;0.73;;;0.50;;
6015;SDS011;3036;49.960;8.454;2023-07-30T03:53:25;0.52;;;0.52;;
6015;SDS011;3036;49.960;8.454;2023-07-30T03:55:54;2.25;;;0.65;;
6015;SDS011;3036;49.960;8.454;2023-07-30T03:58:21;1.90;;;0.82;;
6015;SDS011;3036;49.960;8.454;2023-07-30T04:00:48;0.60;;;0.60;;
6015;SDS011;3036;49.960;8.454;2023-07-30T04:03:15;1.25;;;0.70;;
6015;SDS011;3036;49.960;8.454;2023-07-30T04:05:42;0.82;;;0.60;;
6015;SDS011;3036;49.960;8.454;2023-07-30T04:08:09;2.08;;;0.60;;
6015;SDS011;3036;49.960;8.454;2023-07-30T04:10:36;3.80;;;0.60;;
6015;SDS011;3036;49.960;8.454;2023-07-30T04:13:05;2.28;;;0.68;;
6015;SDS011;3036;49.960;8.454;2023-07-30T04:15:32;0.73;;;0.70;;
6015;SDS011;3036;49.960;8.454;2023-07-30T04:18:00;0.60;;;0.60;;
6015;SDS011;3036;49.960;8.454;2023-07-30T04:20:27;2.92;;;1.38;;
6015;SDS011;3036;49.960;8.454;2023-07-30T04:22:54;0.68;;;0.65;;
6015;SDS011;3036;49.960;8.454;2023-07-30T04:25:22;0.80;;;0.80;;
6015;SDS011;3036;49.960;8.454;2023-07-30T04:27:49;0.55;;;0.55;;
6015;SDS011;3036;49.960;8.454;2023-07-30T04:30:17;1.20;;;0.85;;
6015;SDS011;3036;49.960;8.454;2023-07-30T04:32:44;2.15;;;0.70;;
6015;SDS011;3036;49.960;8.454;2023-07-30T04:35:11;1.27;;;0.63;;
6015;SDS011;3036;49.960;8.454;2023-07-30T04:37:38;0.80;;;0.80;;
6015;SDS011;3036;49.960;8.454;2023-07-30T04:40:06;0.80;;;0.80;;
6015;SDS011;3036;49.960;8.454;2023-07-30T04:42:33;0.80;;;0.80;;
6015;SDS011;3036;49.960;8.454;2023-07-30T04:45:00;0.68;;;0.68;;
6015;SDS011;3036;49.960;8.454;2023-07-30T04:47:29;0.77;;;0.77;;
6015;SDS011;3036;49.960;8.454;2023-07-30T04:49:56;1.17;;;0.70;;
6015;SDS011;3036;49.960;8.454;2023-07-30T04:52:23;1.00;;;1.00;;
6015;SDS011;3036;49.960;8.454;2023-07-30T04:54:50;1.45;;;1.35;;
6015;SDS011;3036;49.960;8.454;2023-07-30T04:57:17;1.02;;;0.93;;
6015;SDS011;3036;49.960;8.454;2023-07-30T04:59:44;0.70;;;0.70;;
6015;SDS011;3036;49.960;8.454;2023-07-30T05:02:11;4.05;;;0.68;;
6015;SDS011;3036;49.960;8.454;2023-07-30T05:04:39;0.60;;;0.60;;
6015;SDS011;3036;49.960;8.454;2023-07-30T05:07:06;0.80;;;0.80;;
6015;SDS011;3036;49.960;8.454;2023-07-30T05:09:33;0.75;;;0.75;;
6015;SDS011;3036;49.960;8.454;2023-07-30T05:12:00;0.80;;;0.80;;
6015;SDS011;3036;49.960;8.454;2023-07-30T05:14:27;2.15;;;0.80;;
6015;SDS011;3036;49.960;8.454;2023-07-30T05:16:54;0.75;;;0.75;;
6015;SDS011;3036;49.960;8.454;2023-07-30T05:19:22;0.80;;;0.80;;
6015;SDS011;3036;49.960;8.454;2023-07-30T05:21:50;0.75;;;0.75;;
6015;SDS011;3036;49.960;8.454;2023-07-30T05:24:17;1.58;;;0.90;;
6015;SDS011;3036;49.960;8.454;2023-07-30T05:26:44;0.77;;;0.77;;
6015;SDS011;3036;49.960;8.454;2023-07-30T05:29:11;0.73;;;0.73;;
6015;SDS011;3036;49.960;8.454;2023-07-30T05:31:38;1.90;;;0.55;;
6015;SDS011;3036;49.960;8.454;2023-07-30T05:34:05;0.80;;;0.80;;
6015;SDS011;3036;49.960;8.454;2023-07-30T05:36:32;0.60;;;0.60;;
6015;SDS011;3036;49.960;8.454;2023-07-30T05:39:01;1.17;;;0.63;;
6015;SDS011;3036;49.960;8.454;2023-07-30T05:41:28;0.80;;;0.80;;
6015;SDS011;3036;49.960;8.454;2023-07-30T05:43:55;0.93;;;0.70;;
6015;SDS011;3036;49.960;8.454;2023-07-30T05:46:22;0.88;;;0.88;;
6015;SDS011;3036;49.960;8.454;2023-07-30T05:48:49;0.90;;;0.90;;
6015;SDS011;3036;49.960;8.454;2023-07-30T05:51:16;2.15;;;1.10;;
6015;SDS011;3036;49.960;8.454;2023-07-30T05:53:43;1.85;;;0.90;;
6015;SDS011;3036;49.960;8.454;2023-07-30T05:56:11;0.77;;;0.77;;
6015;SDS011;3036;49.960;8.454;2023-07-30T05:58:39;0.70;;;0.70;;
6015;SDS011;3036;49.960;8.454;2023-07-30T06:01:06;0.82;;;0.82;;
6015;SDS011;3036;49.960;8.454;2023-07-30T06:03:33;0.70;;;0.70;;
6015;SDS011;3036;49.960;8.454;2023-07-30T06:06:00;0.80;;;0.80;;
6015;SDS011;3036;49.960;8.454;2023-07-30T06:08:27;0.68;;;0.68;;
6015;SDS011;3036;49.960;8.454;2023-07-30T06:10:55;0.98;;;0.80;;
6015;SDS011;3036;49.960;8.454;2023-07-30T06:13:23;0.75;;;0.75;;
6015;SDS011;3036;49.960;8.454;2023-07-30T06:15:50;0.60;;;0.60;;
6015;SDS011;3036;49.960;8.454;2023-07-30T06:18:17;0.60;;;0.60;;
6015;SDS011;3036;49.960;8.454;2023-07-30T06:20:44;0.70;;;0.70;;
6015;SDS011;3036;49.960;8.454;2023-07-30T06:23:12;1.05;;;0.70;;
6015;SDS011;3036;49.960;8.454;2023-07-30T06:25:39;0.80;;;0.80;;
6015;SDS011;3036;49.960;8.454;2023-07-30T06:28:06;1.38;;;0.80;;
6015;SDS011;3036;49.960;8.454;2023-07-30T06:30:34;0.50;;;0.50;;
6015;SDS011;3036;49.960;8.454;2023-07-30T06:33:04;0.65;;;0.65;;
6015;SDS011;3036;49.960;8.454;2023-07-30T06:35:31;0.60;;;0.60;;
6015;SDS011;3036;49.960;8.454;2023-07-30T06:37:58;0.90;;;0.90;;
6015;SDS011;3036;49.960;8.454;2023-07-30T06:40:25;0.70;;;0.70;;
6015;SDS011;3036;49.960;8.454;2023-07-30T06:42:52;1.10;;;0.80;;
6015;SDS011;3036;49.960;8.454;2023-07-30T06:45:19;0.55;;;0.55;;
6015;SDS011;3036;49.960;8.454;2023-07-30T06:47:47;0.60;;;0.60;;
6015;SDS011;3036;49.960;8.454;2023-07-30T06:50:15;0.60;;;0.60;;
6015;SDS011;3036;49.960;8.454;2023-07-30T06:52:42;0.70;;;0.70;;
6015;SDS011;3036;49.960;8.454;2023-07-30T06:55:09;1.05;;;0.73;;
6015;SDS011;3036;49.960;8.454;2023-07-30T06:57:36;0.63;;;0.63;;
6015;SDS011;3036;49.960;8.454;2023-07-30T07:00:03;1.52;;;0.77;;
6015;SDS011;3036;49.960;8.454;2023-07-30T07:02:31;0.80;;;0.80;;
6015;SDS011;3036;49.960;8.454;2023-07-30T07:04:59;0.90;;;0.70;;
6015;SDS011;3036;49.960;8.454;2023-07-30T07:07:27;0.90;;;0.90;;
6015;SDS011;3036;49.960;8.454;2023-07-30T07:09:54;0.60;;;0.60;;
6015;SDS011;3036;49.960;8.454;2023-07-30T07:12:21;0.70;;;0.70;;
6015;SDS011;3036;49.960;8.454;2023-07-30T07:14:48;0.75;;;0.75;;
6015;SDS011;3036;49.960;8.454;2023-07-30T07:17:15;0.80;;;0.80;;
6015;SDS011;3036;49.960;8.454;2023-07-30T07:19:42;0.60;;;0.60;;
6015;SDS011;3036;49.960;8.454;2023-07-30T07:22:10;0.77;;;0.77;;
6015;SDS011;3036;49.960;8.454;2023-07-30T07:24:37;0.60;;;0.60;;
6015;SDS011;3036;49.960;8.454;2023-07-30T07:27:05;0.70;;;0.70;;
6015;SDS011;3036;49.960;8.454;2023-07-30T07:29:32;0.70;;;0.70;;
6015;SDS011;3036;49.960;8.454;2023-07-30T07:31:59;3.60;;;1.00;;
6015;SDS011;3036;49.960;8.454;2023-07-30T07:34:28;0.70;;;0.70;;
6015;SDS011;3036;49.960;8.454;2023-07-30T07:36:55;0.80;;;0.80;;
6015;SDS011;3036;49.960;8.454;2023-07-30T07:39:23;2.42;;;0.68;;
6015;SDS011;3036;49.960;8.454;2023-07-30T07:41:50;0.70;;;0.70;;
6015;SDS011;3036;49.960;8.454;2023-07-30T07:44:17;0.90;;;0.90;;
6015;SDS011;3036;49.960;8.454;2023-07-30T07:46:44;0.70;;;0.65;;
6015;SDS011;3036;49.960;8.454;2023-07-30T07:49:11;0.90;;;0.90;;
6015;SDS011;3036;49.960;8.454;2023-07-30T07:51:38;0.77;;;0.77;;
6015;SDS011;3036;49.960;8.454;2023-07-30T07:54:05;1.35;;;0.90;;
6015;SDS011;3036;49.960;8.454;2023-07-30T07:56:34;1.60;;;0.90;;
6015;SDS011;3036;49.960;8.454;2023-07-30T07:59:01;0.90;;;0.90;;
6015;SDS011;3036;49.960;8.454;2023-07-30T08:01:28;1.15;;;1.02;;
6015;SDS011;3036;49.960;8.454;2023-07-30T08:03:55;1.10;;;1.10;;
6015;SDS011;3036;49.960;8.454;2023-07-30T08:06:22;2.58;;;1.25;;
6015;SDS011;3036;49.960;8.454;2023-07-30T08:08:49;4.18;;;1.50;;
6015;SDS011;3036;49.960;8.454;2023-07-30T08:11:16;1.40;;;1.40;;
6015;SDS011;3036;49.960;8.454;2023-07-30T08:13:45;1.10;;;1.10;;
6015;SDS011;3036;49.960;8.454;2023-07-30T08:16:12;0.95;;;0.95;;
6015;SDS011;3036;49.960;8.454;2023-07-30T08:18:39;1.63;;;1.52;;
6015;SDS011;3036;49.960;8.454;2023-07-30T08:21:06;1.58;;;0.88;;
6015;SDS011;3036;49.960;8.454;2023-07-30T08:23:33;0.70;;;0.70;;
6015;SDS011;3036;49.960;8.454;2023-07-30T08:26:00;0.95;;;0.77;;
6015;SDS011;3036;49.960;8.454;2023-07-30T08:28:27;0.80;;;0.80;;
6015;SDS011;3036;49.960;8.454;2023-07-30T08:31:00;2.17;;;0.90;;
6015;SDS011;3036;49.960;8.454;2023-07-30T08:33:28;0.75;;;0.75;;
6015;SDS011;3036;49.960;8.454;2023-07-30T08:35:55;1.20;;;0.90;;
6015;SDS011;3036;49.960;8.454;2023-07-30T08:38:22;2.05;;;0.68;;
6015;SDS011;3036;49.960;8.454;2023-07-30T08:40:49;1.00;;;1.00;;
6015;SDS011;3036;49.960;8.454;2023-07-30T08:43:17;1.33;;;1.27;;
6015;SDS011;3036;49.960;8.454;2023-07-30T08:45:45;1.17;;;1.17;;
6015;SDS011;3036;49.960;8.454;2023-07-30T08:48:13;1.20;;;1.20;;
6015;SDS011;3036;49.960;8.454;2023-07-30T08:50:40;0.93;;;0.93;;
6015;SDS011;3036;49.960;8.454;2023-07-30T08:53:08;1.00;;;1.00;;
6015;SDS011;3036;49.960;8.454;2023-07-30T08:55:35;1.23;;;1.23;;
6015;SDS011;3036;49.960;8.454;2023-07-30T08:58:03;1.10;;;1.10;;
6015;SDS011;3036;49.960;8.454;2023-07-30T09:00:31;1.30;;;1.30;;
6015;SDS011;3036;49.960;8.454;2023-07-30T09:03:00;1.38;;;1.38;;
6015;SDS011;3036;49.960;8.454;2023-07-30T09:05:29;2.05;;;1.65;;
6015;SDS011;3036;49.960;8.454;2023-07-30T09:07:56;2.28;;;2.17;;
6015;SDS011;3036;49.960;8.454;2023-07-30T09:10:23;4.68;;;2.13;;
6015;SDS011;3036;49.960;8.454;2023-07-30T09:12:52;2.25;;;1.35;;
6015;SDS011;3036;49.960;8.454;2023-07-30T09:15:20;1.60;;;1.50;;
6015;SDS011;3036;49.960;8.454;2023-07-30T09:17:55;2.10;;;1.00;;
6015;SDS011;3036;49.960;8.454;2023-07-30T09:20:22;0.70;;;0.70;;
6015;SDS011;3036;49.960;8.454;2023-07-30T09:22:50;0.50;;;0.50;;
6015;SDS011;3036;49.960;8.454;2023-07-30T09:25:17;0.40;;;0.40;;
6015;SDS011;3036;49.960;8.454;2023-07-30T09:27:47;0.50;;;0.50;;
6015;SDS011;3036;49.960;8.454;2023-07-30T09:30:15;0.30;;;0.30;;
6015;SDS011;3036;49.960;8.454;2023-07-30T09:32:50;0.80;;;0.40;;
6015;SDS011;3036;49.960;8.454;2023-07-30T09:35:17;0.85;;;0.40;;
6015;SDS011;3036;49.960;8.454;2023-07-30T09:37:44;0.55;;;0.38;;
6015;SDS011;3036;49.960;8.454;2023-07-30T09:40:14;0.43;;;0.43;;
6015;SDS011;3036;49.960;8.454;2023-07-30T09:42:45;0.70;;;0.22;;
6015;SDS011;3036;49.960;8.454;2023-07-30T09:45:20;0.63;;;0.35;;
6015;SDS011;3036;49.960;8.454;2023-07-30T09:47:48;1.25;;;0.10;;
6015;SDS011;3036;49.960;8.454;2023-07-30T09:50:15;0.20;;;0.20;;
6015;SDS011;3036;49.960;8.454;2023-07-30T09:52:42;0.45;;;0.40;;
6015;SDS011;3036;49.960;8.454;2023-07-30T09:55:10;0.38;;;0.38;;
6015;SDS011;3036;49.960;8.454;2023-07-30T09:57:39;0.20;;;0.20;;
6015;SDS011;3036;49.960;8.454;2023-07-30T10:00:06;0.20;;;0.20;;
6015;SDS011;3036;49.960;8.454;2023-07-30T10:02:36;0.25;;;0.20;;
6015;SDS011;3036;49.960;8.454;2023-07-30T10:05:04;0.15;;;0.13;;
6015;SDS011;3036;49.960;8.454;2023-07-30T10:07:34;1.48;;;0.30;;
6015;SDS011;3036;49.960;8.454;2023-07-30T10:10:02;1.15;;;0.20;;
6015;SDS011;3036;49.960;8.454;2023-07-30T10:12:31;0.20;;;0.20;;
6015;SDS011;3036;49.960;8.454;2023-07-30T10:15:00;0.20;;;0.20;;
6015;SDS011;3036;49.960;8.454;2023-07-30T10:17:27;0.25;;;0.25;;
6015;SDS011;3036;49.960;8.454;2023-07-30T10:19:54;0.30;;;0.30;;
6015;SDS011;3036;49.960;8.454;2023-07-30T10:22:22;0.40;;;0.40;;
6015;SDS011;3036;49.960;8.454;2023-07-30T10:24:57;0.45;;;0.45;;
6015;SDS011;3036;49.960;8.454;2023-07-30T10:27:25;0.40;;;0.40;;
6015;SDS011;3036;49.960;8.454;2023-07-30T10:32:59;1.27;;;0.40;;
6015;SDS011;3036;49.960;8.454;2023-07-30T10:35:36;0.68;;;0.60;;
6015;SDS011;3036;49.960;8.454;2023-07-30T10:38:11;1.35;;;0.50;;
6015;SDS011;3036;49.960;8.454;2023-07-30T10:40:39;0.57;;;0.30;;
6015;SDS011;3036;49.960;8.454;2023-07-30T10:43:13;0.50;;;0.50;;
6015;SDS011;3036;49.960;8.454;2023-07-30T10:45:47;0.50;;;0.50;;
6015;SDS011;3036;49.960;8.454;2023-07-30T10:48:16;0.43;;;0.40;;
6015;SDS011;3036;49.960;8.454;2023-07-30T10:50:43;0.40;;;0.35;;
6015;SDS011;3036;49.960;8.454;2023-07-30T10:53:13;0.70;;;0.60;;
6015;SDS011;3036;49.960;8.454;2023-07-30T10:55:41;0.50;;;0.40;;
6015;SDS011;3036;49.960;8.454;2023-07-30T10:58:08;1.75;;;0.60;;
6015;SDS011;3036;49.960;8.454;2023-07-30T11:00:35;0.52;;;0.40;;
6015;SDS011;3036;49.960;8.454;2023-07-30T11:03:02;0.68;;;0.55;;
6015;SDS011;3036;49.960;8.454;2023-07-30T11:05:31;3.33;;;0.55;;
6015;SDS011;3036;49.960;8.454;2023-07-30T11:07:58;0.80;;;0.60;;
6015;SDS011;3036;49.960;8.454;2023-07-30T11:10:25;0.60;;;0.60;;
6015;SDS011;3036;49.960;8.454;2023-07-30T11:12:52;0.40;;;0.40;;
6015;SDS011;3036;49.960;8.454;2023-07-30T11:15:19;1.52;;;0.52;;
6015;SDS011;3036;49.960;8.454;2023-07-30T11:17:46;0.95;;;0.50;;
6015;SDS011;3036;49.960;8.454;2023-07-30T11:20:23;2.80;;;0.77;;
6015;SDS011;3036;49.960;8.454;2023-07-30T11:22:53;1.48;;;0.60;;
6015;SDS011;3036;49.960;8.454;2023-07-30T11:25:20;0.73;;;0.30;;
6015;SDS011;3036;49.960;8.454;2023-07-30T11:27:47;1.35;;;0.80;;
6015;SDS011;3036;49.960;8.454;2023-07-30T11:30:14;0.77;;;0.60;;
6015;SDS011;3036;49.960;8.454;2023-07-30T11:32:42;1.10;;;0.65;;
6015;SDS011;3036;49.960;8.454;2023-07-30T11:35:09;0.50;;;0.50;;
6015;SDS011;3036;49.960;8.454;2023-07-30T11:37:37;0.70;;;0.52;;
6015;SDS011;3036;49.960;8.454;2023-07-30T11:40:07;1.38;;;0.50;;
6015;SDS011;3036;49.960;8.454;2023-07-30T11:42:35;0.90;;;0.45;;
6015;SDS011;3036;49.960;8.454;2023-07-30T11:45:17;0.40;;;0.40;;
6015;SDS011;3036;49.960;8.454;2023-07-30T11:47:45;0.77;;;0.50;;
6015;SDS011;3036;49.960;8.454;2023-07-30T11:50:12;0.77;;;0.63;;
6015;SDS011;3036;49.960;8.454;2023-07-30T11:52:50;1.20;;;0.57;;
6015;SDS011;3036;49.960;8.454;2023-07-30T11:55:19;0.75;;;0.50;;
6015;SDS011;3036;49.960;8.454;2023-07-30T11:57:46;1.13;;;0.70;;
6015;SDS011;3036;49.960;8.454;2023-07-30T12:00:13;0.50;;;0.50;;
6015;SDS011;3036;49.960;8.454;2023-07-30T12:02:40;0.60;;;0.60;;
6015;SDS011;3036;49.960;8.454;2023-07-30T12:05:09;4.85;;;0.80;;
6015;SDS011;3036;49.960;8.454;2023-07-30T12:07:39;0.63;;;0.50;;
6015;SDS011;3036;49.960;8.454;2023-07-30T12:10:07;0.73;;;0.60;;
6015;SDS011;3036;49.960;8.454;2023-07-30T12:12:36;2.88;;;0.60;;
6015;SDS011;3036;49.960;8.454;2023-07-30T12:15:09;1.60;;;0.70;;
6015;SDS011;3036;49.960;8.454;2023-07-30T12:17:37;1.15;;;0.55;;
6015;SDS011;3036;49.960;8.454;2023-07-30T12:20:04;1.80;;;0.80;;
6015;SDS011;3036;49.960;8.454;2023-07-30T12:22:31;2.45;;;0.82;;
6015;SDS011;3036;49.960;8.454;2023-07-30T12:25:00;1.77;;;0.60;;
6015;SDS011;3036;49.960;8.454;2023-07-30T12:27:27;0.80;;;0.80;;
6015;SDS011;3036;49.960;8.454;2023-07-30T12:29:55;1.02;;;0.82;;
6015;SDS011;3036;49.960;8.454;2023-07-30T12:32:22;0.68;;;0.57;;
6015;SDS011;3036;49.960;8.454;2023-07-30T12:34:49;1.98;;;0.73;;
6015;SDS011;3036;49.960;8.454;2023-07-30T12:37:16;2.92;;;0.60;;
6015;SDS011;3036;49.960;8.454;2023-07-30T12:39:43;0.70;;;0.70;;
6015;SDS011;3036;49.960;8.454;2023-07-30T12:42:10;1.85;;;0.70;;
6015;SDS011;3036;49.960;8.454;2023-07-30T12:44:37;0.70;;;0.70;;
6015;SDS011;3036;49.960;8.454;2023-07-30T12:47:06;1.35;;;0.73;;
6015;SDS011;3036;49.960;8.454;2023-07-30T12:49:33;0.90;;;0.90;;
6015;SDS011;3036;49.960;8.454;2023-07-30T12:52:00;0.60;;;0.60;;
6015;SDS011;3036;49.960;8.454;2023-07-30T12:54:27;0.60;;;0.60;;
6015;SDS011;3036;49.960;8.454;2023-07-30T12:56:54;1.08;;;0.50;;
6015;SDS011;3036;49.960;8.454;2023-07-30T12:59:21;0.88;;;0.60;;
6015;SDS011;3036;49.960;8.454;2023-07-30T13:01:48;1.60;;;0.80;;
6015;SDS011;3036;49.960;8.454;2023-07-30T13:04:17;1.85;;;0.68;;
6015;SDS011;3036;49.960;8.454;2023-07-30T13:06:44;3.42;;;0.80;;
6015;SDS011;3036;49.960;8.454;2023-07-30T13:09:11;1.35;;;0.80;;
6015;SDS011;3036;49.960;8.454;2023-07-30T13:11:38;1.15;;;0.63;;
6015;SDS011;3036;49.960;8.454;2023-07-30T13:14:05;0.60;;;0.60;;
6015;SDS011;3036;49.960;8.454;2023-07-30T13:16:32;0.70;;;0.70;;
6015;SDS011;3036;49.960;8.454;2023-07-30T13:18:59;1.25;;;0.70;;
6015;SDS011;3036;49.960;8.454;2023-07-30T13:21:27;1.13;;;0.85;;
6015;SDS011;3036;49.960;8.454;2023-07-30T13:23:54;0.93;;;0.60;;
6015;SDS011;3036;49.960;8.454;2023-07-30T13:26:22;0.85;;;0.70;;
6015;SDS011;3036;49.960;8.454;2023-07-30T13:28:49;0.70;;;0.70;;
6015;SDS011;3036;49.960;8.454;2023-07-30T13:31:16;1.50;;;0.70;;
6015;SDS011;3036;49.960;8.454;2023-07-30T13:33:43;0.88;;;0.70;;
6015;SDS011;3036;49.960;8.454;2023-07-30T13:36:12;2.70;;;0.80;;
6015;SDS011;3036;49.960;8.454;2023-07-30T13:38:40;1.85;;;0.60;;
6015;SDS011;3036;49.960;8.454;2023-07-30T13:41:08;2.35;;;0.50;;
6015;SDS011;3036;49.960;8.454;2023-07-30T13:43:35;0.63;;;0.50;;
6015;SDS011;3036;49.960;8.454;2023-07-30T13:46:02;0.90;;;0.90;;
6015;SDS011;3036;49.960;8.454;2023-07-30T13:48:29;1.00;;;0.88;;
6015;SDS011;3036;49.960;8.454;2023-07-30T13:50:56;1.17;;;0.90;;
6015;SDS011;3036;49.960;8.454;2023-07-30T13:53:23;2.03;;;0.70;;
6015;SDS011;3036;49.960;8.454;2023-07-30T13:55:52;0.75;;;0.65;;
6015;SDS011;3036;49.960;8.454;2023-07-30T13:58:19;0.80;;;0.63;;
6015;SDS011;3036;49.960;8.454;2023-07-30T14:00:46;1.08;;;0.75;;
6015;SDS011;3036;49.960;8.454;2023-07-30T14:03:13;1.05;;;0.68;;
6015;SDS011;3036;49.960;8.454;2023-07-30T14:05:40;2.42;;;0.80;;
6015;SDS011;3036;49.960;8.454;2023-07-30T14:08:07;1.20;;;0.70;;
6015;SDS011;3036;49.960;8.454;2023-07-30T14:10:34;2.00;;;0.95;;
6015;SDS011;3036;49.960;8.454;2023-07-30T14:13:02;1.35;;;0.70;;
6015;SDS011;3036;49.960;8.454;2023-07-30T14:15:30;0.77;;;0.60;;
6015;SDS011;3036;49.960;8.454;2023-07-30T14:17:57;0.70;;;0.70;;
6015;SDS011;3036;49.960;8.454;2023-07-30T14:20:25;2.78;;;0.75;;
6015;SDS011;3036;49.960;8.454;2023-07-30T14:22:52;1.20;;;1.00;;
6015;SDS011;3036;49.960;8.454;2023-07-30T14:25:19;1.95;;;0.90;;
6015;SDS011;3036;49.960;8.454;2023-07-30T14:27:46;0.40;;;0.40;;
6015;SDS011;3036;49.960;8.454;2023-07-30T14:30:14;2.10;;;0.63;;
6015;SDS011;3036;49.960;8.454;2023-07-30T14:32:41;2.65;;;0.52;;
6015;SDS011;3036;49.960;8.454;2023-07-30T14:35:08;3.42;;;0.80;;
6015;SDS011;3036;49.960;8.454;2023-07-30T14:37:35;0.90;;;0.88;;
6015;SDS011;3036;49.960;8.454;2023-07-30T14:40:03;1.08;;;0.77;;
6015;SDS011;3036;49.960;8.454;2023-07-30T14:42:30;2.65;;;0.93;;
6015;SDS011;3036;49.960;8.454;2023-07-30T14:44:57;2.05;;;0.65;;
6015;SDS011;3036;49.960;8.454;2023-07-30T14:47:25;0.80;;;0.70;;
6015;SDS011;3036;49.960;8.454;2023-07-30T14:49:52;1.77;;;0.50;;
6015;SDS011;3036;49.960;8.454;2023-07-30T14:52:19;0.82;;;0.70;;
6015;SDS011;3036;49.960;8.454;2023-07-30T14:54:47;0.90;;;0.60;;
6015;SDS011;3036;49.960;8.454;2023-07-30T14:57:14;0.85;;;0.50;;
6015;SDS011;3036;49.960;8.454;2023-07-30T14:59:41;1.45;;;0.60;;
6015;SDS011;3036;49.960;8.454;2023-07-30T15:02:08;0.90;;;0.65;;
6015;SDS011;3036;49.960;8.454;2023-07-30T15:04:36;3.03;;;0.60;;
6015;SDS011;3036;49.960;8.454;2023-07-30T15:07:04;2.35;;;0.50;;
6015;SDS011;3036;49.960;8.454;2023-07-30T15:09:31;1.13;;;0.82;;
6015;SDS011;3036;49.960;8.454;2023-07-30T15:12:00;2.72;;;0.80;;
6015;SDS011;3036;49.960;8.454;2023-07-30T15:14:27;1.30;;;0.65;;
6015;SDS011;3036;49.960;8.454;2023-07-30T15:16:54;2.17;;;0.65;;
6015;SDS011;3036;49.960;8.454;2023-07-30T15:19:21;2.28;;;0.73;;